createdAt,value
2022-08-14T00:02:07.219Z,29.90
2022-08-14T00:04:44.711Z,30.00
2022-08-14T00:07:20.392Z,30.00
2022-08-14T00:10:49.878Z,30.00
2022-08-14T00:12:57.222Z,30.10
2022-08-14T00:15:43.845Z,30.10
2022-08-14T00:18:31.067Z,30.10
2022-08-14T00:21:18.856Z,30.00
2022-08-14T00:23:57.515Z,30.00
2022-08-14T00:26:36.914Z,30.00
2022-08-14T00:29:13.277Z,30.00
2022-08-14T00:31:48.325Z,30.00
2022-08-14T00:34:35.253Z,30.00
2022-08-14T00:37:13.392Z,30.10
2022-08-14T00:39:49.058Z,30.20
2022-08-14T00:42:55.243Z,30.40
2022-08-14T00:45:20.522Z,30.60
2022-08-14T00:47:58.354Z,30.80
2022-08-14T00:50:35.093Z,30.80
2022-08-14T00:53:11.317Z,30.90
2022-08-14T00:55:47.220Z,30.80
2022-08-14T00:58:33.443Z,30.80
2022-08-14T01:01:12.706Z,30.80
2022-08-14T01:03:52.817Z,30.80
2022-08-14T01:06:30.199Z,31.00
2022-08-14T01:09:10.508Z,31.30
2022-08-14T01:11:46.053Z,31.40
2022-08-14T01:14:37.651Z,31.40
2022-08-14T01:17:15.722Z,31.40
2022-08-14T01:20:27.688Z,31.60
2022-08-14T01:23:10.325Z,31.70
2022-08-14T01:25:52.118Z,31.80
2022-08-14T01:28:47.018Z,31.90
2022-08-14T01:31:26.677Z,31.90
2022-08-14T01:35:20.114Z,32.00
2022-08-14T01:37:04.649Z,32.10
2022-08-14T01:39:43.195Z,32.30
2022-08-14T01:42:31.110Z,32.30
2022-08-14T01:45:12.866Z,32.40
2022-08-14T01:48:03.480Z,32.50
2022-08-14T01:50:39.332Z,32.60
2022-08-14T01:53:17.731Z,32.80
2022-08-14T01:55:57.575Z,32.90
2022-08-14T01:58:33.126Z,32.90
2022-08-14T02:01:08.119Z,33.10
2022-08-14T02:03:49.893Z,33.20
2022-08-14T02:06:33.072Z,33.40
2022-08-14T02:09:09.196Z,33.50
2022-08-14T02:11:57.422Z,33.50
2022-08-14T02:14:33.086Z,33.60
2022-08-14T02:17:13.329Z,33.40
2022-08-14T02:19:49.188Z,33.60
2022-08-14T02:22:29.248Z,33.60
2022-08-14T02:25:08.933Z,33.60
2022-08-14T02:28:25.936Z,33.60
2022-08-14T02:30:41.063Z,33.60
2022-08-14T02:33:16.293Z,33.60
2022-08-14T02:35:53.282Z,33.70
2022-08-14T02:38:36.879Z,33.60
2022-08-14T02:41:13.877Z,33.70
2022-08-14T02:43:48.798Z,33.90
2022-08-14T02:46:26.961Z,34.10
2022-08-14T02:49:07.145Z,34.10
2022-08-14T02:51:42.870Z,34.30
2022-08-14T02:54:19.618Z,34.50
2022-08-14T02:57:15.808Z,35.00
2022-08-14T02:59:53.615Z,35.30
2022-08-14T03:02:43.394Z,35.50
2022-08-14T03:05:24.526Z,35.60
2022-08-14T03:08:15.980Z,35.70
2022-08-14T03:10:53.796Z,35.60
2022-08-14T03:13:35.850Z,35.60
2022-08-14T03:16:20.067Z,35.90
2022-08-14T03:19:03.048Z,36.20
2022-08-14T03:21:40.830Z,36.30
2022-08-14T03:24:22.903Z,36.30
2022-08-14T03:26:58.353Z,36.40
2022-08-14T03:29:33.396Z,36.30
2022-08-14T03:32:10.249Z,36.30
2022-08-14T03:34:48.496Z,36.30
2022-08-14T03:39:09.589Z,36.10
2022-08-14T03:40:25.997Z,36.20
2022-08-14T03:43:05.589Z,36.20
2022-08-14T03:45:48.054Z,36.20
2022-08-14T03:48:30.461Z,36.10
2022-08-14T03:51:09.097Z,36.20
2022-08-14T03:53:47.464Z,36.30
2022-08-14T03:56:26.546Z,36.50
2022-08-14T03:59:10.293Z,36.70
2022-08-14T04:01:58.128Z,36.90
2022-08-14T04:04:38.119Z,37.20
2022-08-14T04:07:14.518Z,37.60
2022-08-14T04:09:49.499Z,37.80
2022-08-14T04:12:26.268Z,38.00
2022-08-14T04:15:01.792Z,38.10
2022-08-14T04:17:37.433Z,38.20
2022-08-14T04:20:13.256Z,38.30
2022-08-14T04:23:01.613Z,38.20
2022-08-14T04:25:37.497Z,38.10
2022-08-14T04:29:07.825Z,38.40
2022-08-14T04:31:07.526Z,38.40
2022-08-14T04:33:43.937Z,38.20
2022-08-14T04:36:19.943Z,37.70
2022-08-14T04:39:17.558Z,37.40
2022-08-14T04:42:14.039Z,37.10
2022-08-14T04:44:49.238Z,36.90
2022-08-14T04:47:53.708Z,36.70
2022-08-14T04:50:33.858Z,36.60
2022-08-14T04:53:35.535Z,36.60
2022-08-14T04:56:33.525Z,36.60
2022-08-14T04:59:11.141Z,36.70
2022-08-14T05:01:49.056Z,36.70
2022-08-14T05:04:25.816Z,36.70
2022-08-14T05:07:01.098Z,36.90
2022-08-14T05:09:36.052Z,37.00
2022-08-14T05:13:10.659Z,37.10
2022-08-14T05:15:14.238Z,37.00
2022-08-14T05:17:58.769Z,37.00
2022-08-14T05:21:54.684Z,36.90
2022-08-14T05:23:44.795Z,37.00
2022-08-14T05:26:21.693Z,37.00
2022-08-14T05:28:56.612Z,37.10
2022-08-14T05:31:39.563Z,37.10
2022-08-14T05:34:15.125Z,37.10
2022-08-14T05:37:02.066Z,37.20
2022-08-14T05:39:41.210Z,37.30
2022-08-14T05:42:21.560Z,37.20
2022-08-14T05:44:57.478Z,37.40
2022-08-14T05:47:33.963Z,37.50
2022-08-14T05:50:17.636Z,37.60
2022-08-14T05:52:55.079Z,37.90
2022-08-14T05:55:30.573Z,38.00
2022-08-14T05:58:08.447Z,37.80
2022-08-14T06:00:45.380Z,37.80
2022-08-14T06:03:23.641Z,37.70
2022-08-14T06:05:59.418Z,37.70
2022-08-14T06:08:36.063Z,37.60
2022-08-14T06:11:20.409Z,37.40
2022-08-14T06:14:06.638Z,37.20
2022-08-14T06:16:47.577Z,36.90
2022-08-14T06:19:23.618Z,36.50
2022-08-14T06:21:59.131Z,36.10
2022-08-14T06:24:35.768Z,35.90
2022-08-14T06:27:10.899Z,35.60
2022-08-14T06:29:45.810Z,35.30
2022-08-14T06:32:37.645Z,35.10
2022-08-14T06:35:15.373Z,34.90
2022-08-14T06:37:56.643Z,34.60
2022-08-14T06:40:37.129Z,34.30
2022-08-14T06:43:17.088Z,34.00
2022-08-14T06:45:54.914Z,33.80
2022-08-14T06:48:32.727Z,33.80
2022-08-14T06:51:10.328Z,33.60
2022-08-14T06:53:47.051Z,33.40
2022-08-14T06:56:23.147Z,33.40
2022-08-14T06:58:58.092Z,33.30
2022-08-14T07:01:56.531Z,33.30
2022-08-14T07:04:50.137Z,33.10
2022-08-14T07:07:25.089Z,32.90
2022-08-14T07:10:05.045Z,32.80
2022-08-14T07:12:54.583Z,32.80
2022-08-14T07:15:39.631Z,32.50
2022-08-14T07:18:22.133Z,32.40
2022-08-14T07:21:00.039Z,32.20
2022-08-14T07:23:40.116Z,32.00
2022-08-14T07:26:15.254Z,31.90
2022-08-14T07:28:50.161Z,31.90
2022-08-14T07:31:25.111Z,31.60
2022-08-14T07:34:00.500Z,31.50
2022-08-14T07:36:39.090Z,31.40
2022-08-14T07:39:34.583Z,31.20
2022-08-14T07:42:10.185Z,31.00
2022-08-14T07:44:46.470Z,31.00
2022-08-14T07:47:25.455Z,30.90
2022-08-14T07:50:12.742Z,30.80
2022-08-14T07:52:51.640Z,30.70
2022-08-14T07:55:26.876Z,30.80
2022-08-14T07:58:05.841Z,30.80
2022-08-14T08:00:59.503Z,30.80
2022-08-14T08:03:35.450Z,30.70
2022-08-14T08:06:17.328Z,30.50
2022-08-14T08:09:01.143Z,30.60
2022-08-14T08:11:38.994Z,30.50
2022-08-14T08:14:17.304Z,30.40
2022-08-14T08:16:53.079Z,30.40
2022-08-14T08:19:28.125Z,30.30
2022-08-14T08:22:11.770Z,30.20
2022-08-14T08:24:46.684Z,30.10
2022-08-14T08:27:25.392Z,30.10
2022-08-14T08:30:10.018Z,30.00
2022-08-14T08:32:46.336Z,30.00
2022-08-14T08:35:25.686Z,30.00
2022-08-14T08:39:14.681Z,29.90
2022-08-14T08:41:19.932Z,29.80
2022-08-14T08:44:05.520Z,29.50
2022-08-14T08:46:43.821Z,29.50
2022-08-14T08:49:19.366Z,29.50
2022-08-14T08:52:04.469Z,29.40
2022-08-14T08:54:39.577Z,29.30
2022-08-14T08:57:15.681Z,29.00
2022-08-14T08:59:58.577Z,28.90
2022-08-14T09:02:34.006Z,29.00
2022-08-14T09:05:09.641Z,28.80
2022-08-14T09:07:46.210Z,28.70
2022-08-14T09:10:27.078Z,28.20
2022-08-14T09:13:03.197Z,28.20
2022-08-14T09:15:42.576Z,28.10
2022-08-14T09:18:20.284Z,28.00
2022-08-14T09:20:58.796Z,28.00
2022-08-14T09:23:34.846Z,27.80
2022-08-14T09:26:29.068Z,27.70
2022-08-14T09:29:10.535Z,27.80
2022-08-14T09:31:52.871Z,27.40
2022-08-14T09:35:21.263Z,27.40
2022-08-14T09:38:40.598Z,27.50
2022-08-14T09:42:20.187Z,27.30
2022-08-14T09:45:24.066Z,27.00
2022-08-14T09:47:59.840Z,26.80
2022-08-14T09:50:48.310Z,26.40
2022-08-14T09:54:19.524Z,26.30
2022-08-14T09:56:57.176Z,26.20
2022-08-14T09:59:46.052Z,26.20
2022-08-14T10:02:28.470Z,26.40
2022-08-14T10:05:11.416Z,26.00
2022-08-14T10:07:53.559Z,26.00
2022-08-14T10:10:39.542Z,25.80
2022-08-14T10:13:25.895Z,25.60
2022-08-14T10:16:01.767Z,25.50
2022-08-14T10:18:37.281Z,25.50
2022-08-14T10:21:18.161Z,25.50
2022-08-14T10:23:53.154Z,25.50
2022-08-14T10:26:28.684Z,25.40
2022-08-14T10:29:19.591Z,25.20
2022-08-14T10:31:59.534Z,25.20
2022-08-14T10:34:38.645Z,25.20
2022-08-14T10:37:17.975Z,25.10
2022-08-14T10:40:10.993Z,24.80
2022-08-14T10:42:57.613Z,24.80
2022-08-14T10:45:35.745Z,24.80
2022-08-14T10:48:24.494Z,24.80
2022-08-14T10:51:11.579Z,24.70
2022-08-14T10:53:56.895Z,24.70
2022-08-14T10:56:35.599Z,24.70
2022-08-14T10:59:11.096Z,24.60
2022-08-14T11:01:46.007Z,24.50
2022-08-14T11:04:26.042Z,24.50
2022-08-14T11:07:02.546Z,24.50
2022-08-14T11:09:42.021Z,24.40
2022-08-14T11:12:34.983Z,24.80
2022-08-14T11:15:12.842Z,24.40
2022-08-14T11:17:50.708Z,24.30
2022-08-14T11:20:29.853Z,24.20
2022-08-14T11:23:09.953Z,24.10
2022-08-14T11:25:53.302Z,24.20
2022-08-14T11:28:47.333Z,24.40
2022-08-14T11:31:24.391Z,24.10
2022-08-14T11:33:59.734Z,24.00
2022-08-14T11:37:04.425Z,24.00
2022-08-14T11:39:34.762Z,23.80
2022-08-14T11:42:56.388Z,24.00
2022-08-14T11:45:23.259Z,24.00
2022-08-14T11:48:13.141Z,23.90
2022-08-14T11:50:54.466Z,23.90
2022-08-14T11:53:31.463Z,23.70
2022-08-14T11:56:06.850Z,23.80
2022-08-14T11:58:53.089Z,23.90
2022-08-14T12:01:31.276Z,24.00
2022-08-14T12:04:31.855Z,23.70
2022-08-14T12:07:08.407Z,23.60
2022-08-14T12:09:45.664Z,23.60
2022-08-14T12:12:35.949Z,23.50
2022-08-14T12:15:34.842Z,23.50
2022-08-14T12:18:19.244Z,23.20
2022-08-14T12:20:59.518Z,23.30
2022-08-14T12:23:35.274Z,23.00
2022-08-14T12:26:39.592Z,23.00
2022-08-14T12:29:16.837Z,22.80
2022-08-14T12:32:04.462Z,22.90
2022-08-14T12:34:45.063Z,22.80
2022-08-14T12:37:30.688Z,22.90
2022-08-14T12:40:13.953Z,22.30
2022-08-14T12:42:56.650Z,21.90
2022-08-14T12:45:34.346Z,21.90
2022-08-14T12:48:21.112Z,21.80
2022-08-14T12:51:21.673Z,21.20
2022-08-14T12:54:26.958Z,21.20
2022-08-14T12:57:09.202Z,21.20
2022-08-14T12:59:45.531Z,21.30
2022-08-14T13:02:27.183Z,21.40
2022-08-14T13:05:04.485Z,21.10
2022-08-14T13:07:45.794Z,21.30
2022-08-14T13:10:47.202Z,21.20
2022-08-14T13:13:18.495Z,20.40
2022-08-14T13:15:57.396Z,20.60
2022-08-14T13:18:33.986Z,20.50
2022-08-14T13:21:13.930Z,20.10
2022-08-14T13:23:52.352Z,20.20
2022-08-14T13:26:28.397Z,20.20
2022-08-14T13:29:03.858Z,19.70
2022-08-14T13:31:42.617Z,19.40
2022-08-14T13:34:22.945Z,19.60
2022-08-14T13:37:03.756Z,20.00
2022-08-14T13:39:39.674Z,20.00
2022-08-14T13:42:14.829Z,19.80
2022-08-14T13:44:53.881Z,20.00
2022-08-14T13:47:32.383Z,20.00
2022-08-14T13:50:12.741Z,19.80
2022-08-14T13:52:55.396Z,19.60
2022-08-14T13:55:31.324Z,19.50
2022-08-14T13:58:11.561Z,19.80
2022-08-14T14:01:06.754Z,20.00
2022-08-14T14:03:50.114Z,20.20
2022-08-14T14:06:26.289Z,20.00
2022-08-14T14:09:03.344Z,19.80
2022-08-14T14:11:38.670Z,19.90
2022-08-14T14:14:44.690Z,19.70
2022-08-14T14:17:14.564Z,19.70
2022-08-14T14:19:50.912Z,19.80
2022-08-14T14:23:01.843Z,19.90
2022-08-14T14:25:23.044Z,20.00
2022-08-14T14:27:59.519Z,19.90
2022-08-14T14:30:52.074Z,19.70
2022-08-14T14:33:47.635Z,19.40
2022-08-14T14:36:32.175Z,19.50
2022-08-14T14:39:08.387Z,19.30
2022-08-14T14:41:44.677Z,19.60
2022-08-14T14:44:24.626Z,19.40
2022-08-14T14:47:01.892Z,19.20
2022-08-14T14:49:51.443Z,19.30
2022-08-14T14:52:31.988Z,19.50
2022-08-14T14:55:17.134Z,19.50
2022-08-14T14:57:55.059Z,19.60
2022-08-14T15:00:30.971Z,19.20
2022-08-14T15:03:07.054Z,19.10
2022-08-14T15:05:42.828Z,19.20
2022-08-14T15:08:26.827Z,19.30
2022-08-14T15:11:13.436Z,19.10
2022-08-14T15:13:53.142Z,18.70
2022-08-14T15:16:29.121Z,18.70
2022-08-14T15:19:05.187Z,18.60
2022-08-14T15:21:41.059Z,18.80
2022-08-14T15:24:20.897Z,19.10
2022-08-14T15:27:00.577Z,18.90
2022-08-14T15:29:38.756Z,18.80
2022-08-14T15:32:22.816Z,19.20
2022-08-14T15:34:58.942Z,19.20
2022-08-14T15:37:42.461Z,19.60
2022-08-14T15:40:22.283Z,19.40
2022-08-14T15:42:57.888Z,19.30
2022-08-14T15:45:33.980Z,19.30
2022-08-14T15:48:21.966Z,19.30
2022-08-14T15:50:58.651Z,19.40
2022-08-14T15:53:33.934Z,19.40
2022-08-14T15:56:10.393Z,19.40
2022-08-14T15:59:05.427Z,19.40
2022-08-14T16:01:53.433Z,19.60
2022-08-14T16:04:29.779Z,19.60
2022-08-14T16:07:06.645Z,19.50
2022-08-14T16:09:44.393Z,19.80
2022-08-14T16:12:20.040Z,20.00
2022-08-14T16:15:16.893Z,19.90
2022-08-14T16:17:53.301Z,19.60
2022-08-14T16:26:29.835Z,19.60
2022-08-14T16:29:15.428Z,19.70
2022-08-14T16:31:51.151Z,19.90
2022-08-14T16:34:45.882Z,19.90
2022-08-14T16:37:22.203Z,19.90
2022-08-14T16:39:58.616Z,19.90
2022-08-14T16:40:23.967Z,19.70
2022-08-14T16:42:38.640Z,20.10
2022-08-14T16:45:31.800Z,19.80
2022-08-14T16:48:57.418Z,20.30
2022-08-14T16:51:07.048Z,20.00
2022-08-14T16:53:43.394Z,19.90
2022-08-14T16:56:24.147Z,19.80
2022-08-14T16:59:21.205Z,20.00
2022-08-14T17:02:06.661Z,20.00
2022-08-14T17:04:42.894Z,20.00
2022-08-14T17:07:24.306Z,20.00
2022-08-14T17:10:09.679Z,20.00
2022-08-14T17:12:47.557Z,20.00
2022-08-14T17:15:22.722Z,19.90
2022-08-14T17:18:04.559Z,19.90
2022-08-14T17:21:01.946Z,20.00
2022-08-14T17:23:39.091Z,20.30
2022-08-14T17:26:46.826Z,20.10
2022-08-14T17:29:29.452Z,20.00
2022-08-14T17:32:22.084Z,20.20
2022-08-14T17:35:07.570Z,20.40
2022-08-14T17:37:54.737Z,20.50
2022-08-14T17:40:31.142Z,20.80
2022-08-14T17:43:07.169Z,20.90
2022-08-14T17:45:46.618Z,21.10
2022-08-14T17:49:13.949Z,21.20
2022-08-14T17:51:30.028Z,21.30
2022-08-14T17:54:08.541Z,21.40
2022-08-14T17:56:44.620Z,21.40
2022-08-14T17:59:22.854Z,21.40
2022-08-14T18:02:00.400Z,20.90
2022-08-14T18:04:36.845Z,20.90
2022-08-14T18:07:59.994Z,21.00
2022-08-14T18:10:52.924Z,21.10
2022-08-14T18:13:10.806Z,21.10
2022-08-14T18:15:50.959Z,21.20
2022-08-14T18:18:26.243Z,21.30
2022-08-14T18:21:24.128Z,21.30
2022-08-14T18:24:02.345Z,21.40
2022-08-14T18:26:39.448Z,21.50
2022-08-14T18:29:16.830Z,21.60
2022-08-14T18:31:53.879Z,21.80
2022-08-14T18:34:48.421Z,21.90
2022-08-14T18:37:26.449Z,21.90
2022-08-14T18:40:20.140Z,22.10
2022-08-14T18:43:03.288Z,22.20
2022-08-14T18:46:00.799Z,22.20
2022-08-14T18:48:51.467Z,22.30
2022-08-14T18:51:45.893Z,22.50
2022-08-14T18:54:32.832Z,22.60
2022-08-14T18:57:08.968Z,22.70
2022-08-14T18:59:44.761Z,22.80
2022-08-14T19:02:30.696Z,22.90
2022-08-14T19:05:06.647Z,22.90
2022-08-14T19:07:48.470Z,23.00
2022-08-14T19:10:31.830Z,23.40
2022-08-14T19:13:20.442Z,23.10
2022-08-14T19:16:13.407Z,23.20
2022-08-14T19:18:53.526Z,23.20
2022-08-14T19:21:58.082Z,23.30
2022-08-14T19:24:43.886Z,23.50
2022-08-14T19:27:24.647Z,23.60
2022-08-14T19:30:19.760Z,23.80
2022-08-14T19:33:03.621Z,23.90
2022-08-14T19:35:49.393Z,23.90
2022-08-14T19:38:57.297Z,24.00
2022-08-14T19:41:35.480Z,24.20
2022-08-14T19:44:19.346Z,24.30
2022-08-14T19:47:00.985Z,24.50
2022-08-14T19:50:24.605Z,24.50
2022-08-14T19:52:41.031Z,24.70
2022-08-14T19:55:34.156Z,24.90
2022-08-14T19:58:10.411Z,25.00
2022-08-14T20:00:57.140Z,25.10
2022-08-14T20:04:00.043Z,25.30
2022-08-14T20:06:46.458Z,25.80
2022-08-14T20:11:08.263Z,25.60
2022-08-14T20:12:28.788Z,25.90
2022-08-14T20:15:15.556Z,26.10
2022-08-14T20:17:53.579Z,26.30
2022-08-14T20:20:31.656Z,26.50
2022-08-14T20:23:17.905Z,26.60
2022-08-14T20:25:56.709Z,26.80
2022-08-14T20:28:32.795Z,26.90
2022-08-14T20:31:17.824Z,26.90
2022-08-14T20:34:24.889Z,27.20
2022-08-14T20:37:22.107Z,27.30
2022-08-14T20:39:57.621Z,27.40
2022-08-14T20:42:53.831Z,27.50
2022-08-14T20:45:29.372Z,27.60
2022-08-14T20:48:09.280Z,27.70
2022-08-14T20:50:46.843Z,27.70
2022-08-14T20:53:28.813Z,27.70
2022-08-14T20:56:28.142Z,27.80
2022-08-14T20:59:25.013Z,27.80
2022-08-14T21:02:38.788Z,27.80
2022-08-14T21:05:33.919Z,27.80
2022-08-14T21:08:22.292Z,27.90
2022-08-14T21:10:58.993Z,27.90
2022-08-14T21:14:20.013Z,27.90
2022-08-14T21:16:35.125Z,27.80
2022-08-14T21:19:16.266Z,27.80
2022-08-14T21:21:54.837Z,27.80
2022-08-14T21:24:40.155Z,27.90
2022-08-14T21:27:23.589Z,27.90
2022-08-14T21:29:59.673Z,27.90
2022-08-14T21:32:50.414Z,27.80
2022-08-14T21:35:41.723Z,27.80
2022-08-14T21:38:18.107Z,27.90
2022-08-14T21:40:55.536Z,27.90
2022-08-14T21:43:32.180Z,27.80
2022-08-14T21:46:07.917Z,27.90
2022-08-14T21:48:44.274Z,27.80
2022-08-14T21:51:55.445Z,27.90
2022-08-14T21:54:32.131Z,27.90
2022-08-14T21:57:13.720Z,27.90
2022-08-14T21:59:49.919Z,27.80
2022-08-14T22:02:32.476Z,27.90
2022-08-14T22:05:11.089Z,27.90
2022-08-14T22:07:47.359Z,28.10
2022-08-14T22:10:29.890Z,28.10
2022-08-14T22:13:07.528Z,28.10
2022-08-14T22:15:49.419Z,28.00
2022-08-14T22:18:25.581Z,28.00
2022-08-14T22:21:00.681Z,28.00
2022-08-14T22:23:40.967Z,28.10
2022-08-14T22:26:21.815Z,28.10
2022-08-14T22:28:57.758Z,28.20
2022-08-14T22:31:39.589Z,28.20
2022-08-14T22:34:15.474Z,28.20
2022-08-14T22:36:54.335Z,28.20
2022-08-14T22:40:51.072Z,28.20
2022-08-14T22:42:27.744Z,28.20
2022-08-14T22:45:12.716Z,28.30
2022-08-14T22:47:48.049Z,28.40
2022-08-14T22:50:33.505Z,28.40
2022-08-14T22:53:10.258Z,28.50
2022-08-14T22:55:45.284Z,28.50
2022-08-14T22:58:31.721Z,28.60
2022-08-14T23:01:16.248Z,28.60
2022-08-14T23:03:51.833Z,28.80
2022-08-14T23:07:02.932Z,28.80
2022-08-14T23:09:35.364Z,28.90
2022-08-14T23:12:28.533Z,29.30
2022-08-14T23:15:05.460Z,28.90
2022-08-14T23:17:42.651Z,29.00
2022-08-14T23:20:22.165Z,29.00
2022-08-14T23:22:58.106Z,29.00
2022-08-14T23:25:59.629Z,29.10
2022-08-14T23:28:34.191Z,29.10
2022-08-14T23:31:35.016Z,29.20
2022-08-14T23:34:20.764Z,29.20
2022-08-14T23:36:58.146Z,29.30
2022-08-14T23:39:39.401Z,29.20
2022-08-14T23:42:17.920Z,29.70
2022-08-14T23:44:53.179Z,30.00
2022-08-14T23:47:28.263Z,30.40
2022-08-14T23:50:07.823Z,30.40
2022-08-14T23:53:07.469Z,30.30
2022-08-14T23:55:43.106Z,30.40
2022-08-14T23:58:29.609Z,30.00
